Visit the IPS Meteostar Home Page 2IPSM Phoenix Sky Harbor International Airport FORECAST

Phoenix, Arizona

2 miles away at Phoenix Sky Harbor International Airport 16:51 GMT

Weather:

Clear

Wind:

SSE 10 mph

Temperature:

86 ° F

Pressure:

29.84

Dew Point:

56 ° F

Relative Humidity:

35

Feels Like:

85 ° F

Visibility:

10 miles


Aviation Observations:

KPHX 191651Z 15009KT 10SM FEW065 FEW250 30/13 A2988 RMK AO2 SLP097 T03000133 =

National Weather Service Forecast:
Greater Phoenix Area


Visit the IPS Meteostar Home Page